Time;durP1;ratioP1;P1;durP2;ratioP2;P2;SDS_P1;SDS_P2;PMS_P1;PMS_P2;Temp;Humidity;BMP_temperature;BMP_pressure;BME280_temperature;BME280_humidity;BME280_pressure;Samples;Min_cycle;Max_cycle;Signal;HPM_P1;HPM_P2
2024/01/24 00:02:10;;;;;;;11.52;4.05;;;;;;;6.40;71.86;100544.06;4954644;28;20031;-76
2024/01/24 00:04:36;;;;;;;7.07;3.45;;;;;;;6.20;72.24;100531.59;4949263;28;21066;-79
2024/01/24 00:07:04;;;;;;;7.80;3.50;;;;;;;6.07;73.40;100537.09;4956099;28;20192;-75
2024/01/24 00:09:31;;;;;;;5.28;3.15;;;;;;;6.36;71.60;100532.91;4937902;28;20030;-75
2024/01/24 00:11:59;;;;;;;6.88;3.30;;;;;;;6.50;70.89;100512.59;4981430;28;20065;-77
2024/01/24 00:14:25;;;;;;;4.45;2.60;;;;;;;6.94;69.80;100522.56;4953563;28;20132;-79
2024/01/24 00:16:54;;;;;;;14.07;2.75;;;;;;;6.28;72.09;100527.94;4924492;28;20224;-82
2024/01/24 00:19:22;;;;;;;4.63;2.42;;;;;;;6.33;72.79;100543.38;4931445;28;20035;-79
2024/01/24 00:21:48;;;;;;;6.13;2.90;;;;;;;6.20;72.75;100531.59;4915771;28;20035;-77
2024/01/24 00:24:16;;;;;;;10.32;2.22;;;;;;;6.34;73.31;100534.69;4908337;28;20817;-77
2024/01/24 00:26:41;;;;;;;6.80;1.90;;;;;;;6.22;72.73;100529.81;4887489;28;20099;-77
2024/01/24 00:29:07;;;;;;;3.20;1.70;;;;;;;6.37;71.31;100547.56;4871609;28;20414;-77
2024/01/24 00:31:33;;;;;;;5.32;1.60;;;;;;;6.81;70.83;100529.88;4881466;28;20042;-78
2024/01/24 00:34:02;;;;;;;9.25;2.15;;;;;;;6.78;70.91;100529.97;4887826;28;20282;-76
2024/01/24 00:36:28;;;;;;;8.15;1.58;;;;;;;6.78;70.99;100529.13;4872540;28;21011;-76
2024/01/24 00:38:58;;;;;;;7.05;2.78;;;;;;;6.78;71.46;100529.13;4943185;28;20069;-75
2024/01/24 00:41:23;;;;;;;7.10;1.20;;;;;;;6.76;70.95;100523.13;4938033;28;20035;-75
2024/01/24 00:43:49;;;;;;;4.65;1.80;;;;;;;6.48;72.06;100511.81;4949751;28;20086;-70
2024/01/24 00:46:14;;;;;;;8.85;1.30;;;;;;;6.88;70.67;100507.16;4943632;28;20543;-70
2024/01/24 00:48:40;;;;;;;14.18;3.40;;;;;;;6.27;72.61;100489.00;4934832;28;21017;-71
2024/01/24 00:51:05;;;;;;;7.35;1.40;;;;;;;6.79;70.96;100492.69;4973189;28;20078;-71
2024/01/24 00:53:36;;;;;;;5.68;1.73;;;;;;;6.63;71.67;100483.69;4941152;28;20062;-68
2024/01/24 00:56:03;;;;;;;9.53;1.40;;;;;;;6.39;72.16;100474.84;4970014;28;20042;-71
2024/01/24 00:58:28;;;;;;;11.35;1.75;;;;;;;6.62;71.77;100481.97;4936910;28;20524;-71
2024/01/24 01:00:54;;;;;;;9.95;1.55;;;;;;;6.71;70.85;100466.13;4942825;28;20035;-71
2024/01/24 01:03:22;;;;;;;12.45;2.22;;;;;;;6.44;71.54;100457.38;4940157;28;20042;-71
2024/01/24 01:05:48;;;;;;;15.98;1.98;;;;;;;6.36;71.62;100455.03;4940899;28;20058;-71
2024/01/24 01:08:13;;;;;;;8.65;1.70;;;;;;;7.06;69.23;100477.16;4960134;28;20038;-71
2024/01/24 01:10:41;;;;;;;4.45;1.65;;;;;;;6.64;70.67;100456.78;4938878;28;20042;-72
2024/01/24 01:13:09;;;;;;;9.98;1.45;;;;;;;6.64;70.81;100473.25;4943821;28;20026;-71
2024/01/24 01:15:37;;;;;;;7.97;1.17;;;;;;;6.71;70.62;100476.50;4938637;28;20089;-72
2024/01/24 01:18:02;;;;;;;12.02;1.73;;;;;;;6.50;70.91;100467.59;4940290;28;20425;-72
2024/01/24 01:20:28;;;;;;;5.72;1.20;;;;;;;6.85;69.82;100479.53;4952905;28;20392;-71
2024/01/24 01:22:56;;;;;;;4.80;1.45;;;;;;;6.49;71.12;100456.38;4942068;28;20750;-74
2024/01/24 01:25:24;;;;;;;7.35;1.33;;;;;;;6.67;70.20;100473.16;4896502;28;20326;-73
2024/01/24 01:27:50;;;;;;;6.70;1.50;;;;;;;6.63;70.30;100452.50;4886015;28;20043;-71
2024/01/24 01:30:15;;;;;;;8.27;1.30;;;;;;;7.06;68.92;100464.16;4857088;28;20310;-74
2024/01/24 01:32:41;;;;;;;1.80;0.57;;;;;;;6.64;70.84;100469.78;4854804;28;20027;-72
2024/01/24 01:35:08;;;;;;;4.78;0.80;;;;;;;6.56;70.65;100443.22;4862847;28;20220;-73
2024/01/24 01:37:34;;;;;;;6.47;1.38;;;;;;;6.76;69.73;100453.00;4883999;28;20026;-72
2024/01/24 01:40:00;;;;;;;7.90;1.83;;;;;;;6.96;69.72;100444.59;4932742;28;20126;-72
2024/01/24 01:42:28;;;;;;;16.17;1.60;;;;;;;6.94;69.63;100441.19;4975218;28;20114;-72
2024/01/24 01:44:53;;;;;;;8.55;0.85;;;;;;;6.48;70.07;100444.31;4964871;28;20081;-73
2024/01/24 01:47:21;;;;;;;10.00;1.73;;;;;;;6.91;69.04;100442.13;4959149;28;20038;-76
2024/01/24 01:49:50;;;;;;;7.70;1.63;;;;;;;6.66;69.72;100426.44;4971102;28;20050;-76
2024/01/24 01:52:16;;;;;;;4.20;0.57;;;;;;;6.70;69.49;100444.47;4930037;28;20067;-71
2024/01/24 01:54:43;;;;;;;9.50;1.17;;;;;;;6.69;69.48;100431.56;4942317;28;20042;-71
2024/01/24 01:57:11;;;;;;;11.38;1.33;;;;;;;7.22;67.90;100449.78;4927337;28;20050;-76
2024/01/24 01:59:40;;;;;;;7.03;0.80;;;;;;;6.73;68.72;100421.91;4969390;28;20039;-73
2024/01/24 02:02:06;;;;;;;15.05;1.75;;;;;;;7.07;68.57;100438.13;4968380;28;20058;-74
2024/01/24 02:04:32;;;;;;;7.70;0.57;;;;;;;6.68;70.79;100440.22;4946871;28;20093;-73
2024/01/24 02:06:58;;;;;;;7.20;0.30;;;;;;;6.71;70.50;100460.94;4941231;28;20039;-75
2024/01/24 02:09:24;;;;;;;4.07;0.20;;;;;;;6.52;71.15;100457.19;4974706;28;20114;-72
2024/01/24 02:11:50;;;;;;;7.30;1.08;;;;;;;6.76;71.17;100450.41;4939492;28;20114;-70
2024/01/24 02:14:16;;;;;;;4.95;0.40;;;;;;;6.76;70.78;100453.84;4967688;28;20039;-71
2024/01/24 02:16:41;;;;;;;4.53;0.38;;;;;;;6.67;70.31;100449.78;4932888;28;20740;-70
2024/01/24 02:19:10;;;;;;;9.18;0.45;;;;;;;6.81;70.95;100446.75;4935853;28;20054;-70
2024/01/24 02:21:36;;;;;;;6.32;0.85;;;;;;;6.90;69.96;100472.44;4937341;28;20059;-70
2024/01/24 02:24:03;;;;;;;6.85;0.57;;;;;;;6.81;70.11;100466.69;4942560;28;20118;-70
2024/01/24 02:26:29;;;;;;;9.32;1.05;;;;;;;6.43;71.61;100471.28;4940037;28;20482;-70
2024/01/24 02:28:54;;;;;;;5.43;0.65;;;;;;;6.96;69.51;100489.59;4936229;28;20093;-70
2024/01/24 02:31:20;;;;;;;4.50;0.52;;;;;;;6.82;69.97;100469.25;4945623;28;20533;-72
2024/01/24 02:33:48;;;;;;;6.38;0.60;;;;;;;6.76;71.03;100479.81;4968103;28;20126;-70
2024/01/24 02:36:14;;;;;;;2.78;0.30;;;;;;;6.60;70.50;100470.78;4938977;28;20060;-70
2024/01/24 02:38:43;;;;;;;10.70;1.17;;;;;;;6.75;69.38;100452.13;4939992;28;20086;-70
2024/01/24 02:41:09;;;;;;;3.60;0.57;;;;;;;6.77;69.62;100471.09;4936360;28;20047;-71
2024/01/24 02:43:35;;;;;;;3.28;0.80;;;;;;;6.70;69.53;100460.06;4941086;28;20049;-72
2024/01/24 02:46:01;;;;;;;8.65;1.33;;;;;;;6.80;68.42;100460.66;4941312;28;20041;-71
2024/01/24 02:48:29;;;;;;;5.25;0.60;;;;;;;6.54;69.47;100437.22;4967288;28;20187;-70
2024/01/24 02:50:57;;;;;;;2.78;1.10;;;;;;;6.74;68.88;100429.66;4938079;28;20034;-70
2024/01/24 02:53:25;;;;;;;14.68;1.67;;;;;;;6.43;70.19;100435.78;4974415;28;20058;-70
2024/01/24 02:55:50;;;;;;;3.97;0.75;;;;;;;6.31;70.52;100423.19;4957589;28;20913;-70
2024/01/24 02:58:16;;;;;;;9.93;0.73;;;;;;;6.86;69.26;100459.59;4943659;28;20041;-70
2024/01/24 03:00:42;;;;;;;5.38;1.50;;;;;;;6.50;70.35;100446.84;4948410;28;20038;-70
2024/01/24 03:03:07;;;;;;;6.47;1.10;;;;;;;7.01;68.34;100459.13;4945273;28;20039;-68
2024/01/24 03:05:33;;;;;;;13.30;1.00;;;;;;;6.98;68.28;100448.00;4960930;28;20034;-69
2024/01/24 03:07:59;;;;;;;8.15;0.75;;;;;;;6.65;68.51;100466.31;4939679;28;20058;-68
2024/01/24 03:10:27;;;;;;;7.32;0.75;;;;;;;6.83;68.57;100429.38;4963528;28;20066;-68
2024/01/24 03:12:53;;;;;;;10.57;1.70;;;;;;;7.09;67.38;100441.53;4937419;28;20156;-68
2024/01/24 03:15:18;;;;;;;6.97;0.38;;;;;;;6.80;67.90;100433.84;4936986;28;20045;-68
2024/01/24 03:17:44;;;;;;;10.63;0.40;;;;;;;6.64;68.67;100428.22;4937453;28;20035;-65
2024/01/24 03:20:11;;;;;;;13.73;1.00;;;;;;;6.61;68.40;100452.53;4943232;28;20054;-68
2024/01/24 03:22:37;;;;;;;16.42;0.95;;;;;;;6.78;68.11;100452.03;4967794;28;20134;-67
2024/01/24 03:25:03;;;;;;;14.50;1.38;;;;;;;6.61;68.32;100433.53;4937411;28;20058;-68
2024/01/24 03:27:28;;;;;;;6.28;0.77;;;;;;;6.36;68.23;100410.91;4942436;28;20560;-67
2024/01/24 03:29:54;;;;;;;5.72;0.80;;;;;;;6.72;67.81;100441.00;4933490;28;20049;-67
2024/01/24 03:32:19;;;;;;;7.60;0.75;;;;;;;6.71;66.81;100460.94;4941953;28;20035;-67
2024/01/24 03:35:13;;;;;;;7.65;0.70;;;;;;;6.52;66.75;100402.66;4938917;28;20402;-70
2024/01/24 03:37:46;;;;;;;5.53;1.00;;;;;;;6.40;66.60;100441.06;4947010;28;20050;-70
2024/01/24 03:40:15;;;;;;;14.35;0.82;;;;;;;7.03;64.93;100446.94;4940345;28;20142;-70
2024/01/24 03:42:40;;;;;;;12.13;0.63;;;;;;;6.73;65.05;100453.06;4970440;28;20035;-69
2024/01/24 03:45:06;;;;;;;12.10;1.15;;;;;;;6.52;65.55;100470.16;4941829;28;20090;-69
2024/01/24 03:47:32;;;;;;;11.98;1.67;;;;;;;6.48;65.27;100459.00;4946164;28;20521;-68
2024/01/24 03:49:57;;;;;;;10.57;0.85;;;;;;;6.85;63.52;100468.28;4965178;28;20042;-68
2024/01/24 03:52:23;;;;;;;11.10;0.77;;;;;;;6.75;63.84;100452.13;4943767;28;20121;-68
2024/01/24 03:54:50;;;;;;;10.80;1.60;;;;;;;6.74;63.55;100467.78;4941866;28;20355;-68
2024/01/24 03:57:18;;;;;;;9.32;1.73;;;;;;;6.66;63.52;100488.78;4942035;28;20043;-68
2024/01/24 03:59:46;;;;;;;10.85;0.80;;;;;;;6.46;63.16;100477.25;4940928;28;20058;-69
2024/01/24 04:02:12;;;;;;;8.48;1.63;;;;;;;6.63;62.24;100473.28;4933387;28;20078;-69
2024/01/24 04:04:37;;;;;;;9.95;2.00;;;;;;;6.78;61.17;100467.63;4943010;28;20039;-68
2024/01/24 04:07:03;;;;;;;8.15;1.90;;;;;;;6.73;60.85;100458.25;4943099;28;21291;-69
2024/01/24 04:09:28;;;;;;;9.93;1.05;;;;;;;6.66;60.76;100449.81;4946101;28;20519;-70
2024/01/24 04:11:54;;;;;;;8.68;0.93;;;;;;;6.74;60.75;100476.41;4932384;28;21657;-70
2024/01/24 04:14:22;;;;;;;13.32;1.58;;;;;;;6.37;61.33;100476.63;4978993;28;20126;-70
2024/01/24 04:16:48;;;;;;;10.07;1.00;;;;;;;6.68;60.72;100477.44;4939346;28;20093;-71
2024/01/24 04:19:16;;;;;;;9.57;1.20;;;;;;;6.48;61.20;100491.03;4933908;28;20039;-70
2024/01/24 04:21:47;;;;;;;13.18;1.25;;;;;;;6.42;60.94;100475.63;4937066;28;20058;-70
2024/01/24 04:24:13;;;;;;;;;;;;;;;6.76;60.37;100481.56;4944723;28;20067;-70
2024/01/24 04:26:39;;;;;;;13.80;0.88;;;;;;;6.95;60.04;100484.44;4942872;28;19948;-70
2024/01/24 04:29:07;;;;;;;13.55;1.80;;;;;;;6.85;60.19;100479.53;4938022;28;20061;-70
2024/01/24 04:31:33;;;;;;;9.02;1.10;;;;;;;6.54;60.77;100474.41;4947206;28;20110;-70
2024/01/24 04:33:58;;;;;;;15.85;1.98;;;;;;;6.59;60.98;100482.06;4965347;28;20031;-70
2024/01/24 04:36:33;;;;;;;5.55;1.60;;;;;;;6.91;60.28;100492.34;4949005;28;20026;-70
2024/01/24 04:39:01;;;;;;;7.32;0.63;;;;;;;6.83;60.14;100483.06;4968036;28;20320;-70
2024/01/24 04:41:27;;;;;;;17.27;1.60;;;;;;;6.39;60.87;100475.69;4978635;28;20475;-70
2024/01/24 04:43:52;;;;;;;12.50;1.40;;;;;;;6.49;60.72;100508.31;4937843;28;20109;-70
2024/01/24 04:46:20;;;;;;;10.25;1.08;;;;;;;6.69;59.75;100514.66;4947506;28;20139;-69
2024/01/24 04:48:49;;;;;;;12.00;1.90;;;;;;;6.49;60.28;100477.16;4941292;28;20240;-69
2024/01/24 04:51:14;;;;;;;17.17;2.65;;;;;;;6.27;59.72;100496.78;4943723;28;20199;-69
2024/01/24 04:53:40;;;;;;;15.32;2.25;;;;;;;6.45;59.55;100511.88;4939207;28;20038;-69
2024/01/24 04:56:08;;;;;;;8.38;1.35;;;;;;;6.80;58.69;100530.78;4974263;28;20073;-73
2024/01/24 04:58:33;;;;;;;16.27;1.70;;;;;;;6.70;59.06;100516.34;4976116;28;20509;-73
2024/01/24 05:01:00;;;;;;;21.50;2.38;;;;;;;6.67;58.50;100526.84;4960890;28;20050;-71
2024/01/24 05:03:25;;;;;;;9.88;2.28;;;;;;;6.59;58.88;100523.59;4949352;28;20109;-71
2024/01/24 05:05:52;;;;;;;14.25;2.17;;;;;;;6.43;58.99;100533.59;4972048;28;20070;-74
2024/01/24 05:08:18;;;;;;;13.05;1.98;;;;;;;6.46;58.44;100526.56;4934708;28;20038;-74
2024/01/24 05:10:44;;;;;;;23.45;1.48;;;;;;;6.73;58.14;100544.84;4941475;28;20059;-72
2024/01/24 05:13:11;;;;;;;16.92;2.65;;;;;;;6.44;58.21;100523.16;4942773;28;20742;-73
2024/01/24 05:15:36;;;;;;;16.15;1.70;;;;;;;6.76;57.40;100531.75;4965517;28;20051;-72
2024/01/24 05:18:02;;;;;;;19.10;1.30;;;;;;;6.48;57.59;100521.31;4956634;28;20616;-73
2024/01/24 05:20:29;;;;;;;8.77;1.55;;;;;;;6.61;56.99;100516.63;4924238;28;20046;-72
2024/01/24 05:22:55;;;;;;;14.55;1.88;;;;;;;6.63;56.17;100531.25;4972136;28;20090;-73
2024/01/24 05:25:21;;;;;;;21.35;2.45;;;;;;;6.64;56.37;100532.09;4943757;28;20042;-72
2024/01/24 05:27:47;;;;;;;15.60;1.80;;;;;;;6.31;56.30;100529.59;4966672;28;20038;-72
2024/01/24 05:30:16;;;;;;;9.63;1.15;;;;;;;6.29;56.41;100541.75;4929132;28;20144;-73
2024/01/24 05:32:44;;;;;;;19.88;1.90;;;;;;;6.29;56.22;100549.53;4935484;28;20070;-73
2024/01/24 05:35:10;;;;;;;22.38;4.07;;;;;;;6.33;56.07;100542.50;4936984;28;20718;-74
2024/01/24 05:37:36;;;;;;;20.17;1.85;;;;;;;6.15;56.70;100544.72;4930221;28;20039;-74
2024/01/24 05:40:01;;;;;;;10.60;1.13;;;;;;;6.05;57.11;100574.38;4942313;28;20146;-72
2024/01/24 05:42:29;;;;;;;11.13;2.60;;;;;;;6.30;57.24;100564.22;4940083;28;20130;-72
2024/01/24 05:44:55;;;;;;;19.98;1.67;;;;;;;6.24;57.30;100566.97;4941011;28;20482;-72
2024/01/24 05:47:20;;;;;;;21.40;1.90;;;;;;;6.70;56.16;100573.50;4976256;28;20047;-73
2024/01/24 05:49:49;;;;;;;20.95;2.20;;;;;;;5.85;57.97;100548.94;4939177;28;20045;-73
2024/01/24 05:52:19;;;;;;;11.18;2.05;;;;;;;6.41;57.14;100551.78;4961788;28;20063;-71
2024/01/24 05:54:44;;;;;;;19.33;2.20;;;;;;;6.42;56.96;100570.84;4958189;28;20041;-73
2024/01/24 05:57:10;;;;;;;15.35;2.00;;;;;;;5.94;58.05;100564.25;4970426;28;20039;-72
2024/01/24 05:59:35;;;;;;;12.30;1.77;;;;;;;6.53;57.41;100580.91;4964467;28;20077;-72
2024/01/24 06:02:01;;;;;;;31.50;3.08;;;;;;;5.91;58.19;100564.34;4957485;28;20066;-74
2024/01/24 06:04:26;;;;;;;20.13;3.65;;;;;;;6.45;57.57;100599.31;4945964;28;20495;-72
2024/01/24 06:06:54;;;;;;;23.02;2.47;;;;;;;6.18;58.00;100580.09;4947125;28;20039;-72
2024/01/24 06:09:20;;;;;;;12.70;2.33;;;;;;;5.86;58.36;100597.34;4882319;28;20307;-72
2024/01/24 06:11:48;;;;;;;26.60;2.80;;;;;;;6.29;57.36;100588.47;4870335;28;20195;-74
2024/01/24 06:14:14;;;;;;;31.30;3.85;;;;;;;6.04;57.73;100607.25;4906586;28;20173;-73
2024/01/24 06:16:41;;;;;;;27.85;4.15;;;;;;;6.26;56.74;100617.06;4911253;28;20090;-75
2024/01/24 06:19:07;;;;;;;25.13;4.05;;;;;;;6.06;57.18;100607.19;4844540;28;20265;-74
2024/01/24 06:21:33;;;;;;;29.98;2.90;;;;;;;6.23;56.26;100604.19;4974589;28;20046;-76
2024/01/24 06:23:58;;;;;;;21.15;3.40;;;;;;;6.21;55.94;100585.19;4957253;28;20035;-74
2024/01/24 06:26:24;;;;;;;16.77;3.72;;;;;;;6.34;55.23;100583.16;4947609;28;20023;-75
2024/01/24 06:28:49;;;;;;;23.42;2.75;;;;;;;5.96;55.84;100604.00;4944432;28;20027;-74
2024/01/24 06:31:15;;;;;;;21.42;3.22;;;;;;;6.19;55.36;100602.53;4974170;28;20042;-75
2024/01/24 06:33:40;;;;;;;17.50;4.15;;;;;;;5.97;54.86;100592.75;4945860;28;20494;-76
2024/01/24 06:36:06;;;;;;;28.63;6.07;;;;;;;6.11;55.22;100614.88;4947680;28;20050;-75
2024/01/24 06:38:32;;;;;;;21.92;2.45;;;;;;;6.11;54.80;100625.28;4967027;28;20069;-75
2024/01/24 06:41:00;;;;;;;28.25;3.47;;;;;;;5.85;55.12;100611.19;4940972;28;20043;-74
2024/01/24 06:43:25;;;;;;;22.70;2.45;;;;;;;6.33;53.55;100626.44;4943162;28;20097;-75
2024/01/24 06:45:51;;;;;;;17.38;3.42;;;;;;;6.22;53.56;100628.44;4958977;28;20031;-74
2024/01/24 06:48:19;;;;;;;29.05;4.68;;;;;;;5.99;53.55;100649.75;4953556;28;20531;-75
2024/01/24 06:50:44;;;;;;;32.10;5.32;;;;;;;5.75;54.53;100628.72;4942941;28;20037;-74
2024/01/24 06:53:14;;;;;;;34.95;4.90;;;;;;;6.08;53.22;100626.16;4946585;28;20035;-74
2024/01/24 06:55:41;;;;;;;27.17;3.30;;;;;;;5.84;54.02;100648.41;4977671;28;20149;-76
2024/01/24 06:58:07;;;;;;;24.70;3.78;;;;;;;5.63;54.35;100660.09;4933155;28;22779;-69
2024/01/24 07:00:33;;;;;;;41.47;5.50;;;;;;;5.88;53.69;100656.06;4938192;28;20035;-67
2024/01/24 07:03:00;;;;;;;23.60;3.50;;;;;;;6.29;52.38;100656.81;4968570;28;20500;-67
2024/01/24 07:05:25;;;;;;;25.88;4.20;;;;;;;6.04;52.72;100666.09;4955312;28;20432;-68
2024/01/24 07:07:51;;;;;;;30.50;3.75;;;;;;;5.86;53.01;100647.47;4949206;28;20039;-73
2024/01/24 07:10:16;;;;;;;24.67;4.45;;;;;;;5.60;53.57;100673.16;4940368;28;20046;-66
2024/01/24 07:12:45;;;;;;;15.35;3.40;;;;;;;6.04;52.68;100672.13;4949006;28;20482;-66
2024/01/24 07:15:11;;;;;;;24.25;3.45;;;;;;;6.28;51.72;100675.00;4939509;28;20039;-70
2024/01/24 07:17:37;;;;;;;27.92;5.07;;;;;;;5.89;52.05;100667.28;4944962;28;20549;-70
2024/01/24 07:20:09;;;;;;;22.65;3.00;;;;;;;6.08;51.86;100668.56;4972115;28;20521;-72
2024/01/24 07:22:34;;;;;;;25.67;4.60;;;;;;;5.87;51.67;100674.25;4946385;28;20062;-69
2024/01/24 07:25:04;;;;;;;20.00;3.03;;;;;;;6.09;51.40;100667.66;4945427;28;20058;-69
2024/01/24 07:27:32;;;;;;;23.48;5.20;;;;;;;6.09;51.14;100685.81;4943733;28;20091;-67
2024/01/24 07:29:57;;;;;;;30.02;3.83;;;;;;;5.77;51.67;100683.13;4938222;28;20260;-67
2024/01/24 07:32:25;;;;;;;20.55;2.63;;;;;;;5.97;51.27;100695.63;4940982;28;20039;-70
2024/01/24 07:34:51;;;;;;;24.67;5.45;;;;;;;5.38;51.90;100696.09;4972920;28;20085;-68
2024/01/24 07:37:19;;;;;;;25.33;4.35;;;;;;;5.38;51.88;100672.75;4946171;28;20173;-70
2024/01/24 07:39:47;;;;;;;24.10;4.10;;;;;;;5.72;51.47;100700.53;4940633;28;20046;-69
2024/01/24 07:42:16;;;;;;;17.50;2.50;;;;;;;5.90;51.12;100681.94;4933522;28;20042;-69
2024/01/24 07:44:42;;;;;;;27.42;4.00;;;;;;;5.53;51.85;100700.94;4936389;28;20041;-68
2024/01/24 07:47:08;;;;;;;25.00;4.05;;;;;;;5.40;52.62;100704.69;4967381;28;20042;-69
2024/01/24 07:49:34;;;;;;;30.23;4.15;;;;;;;5.28;52.66;100721.34;4944265;28;20042;-66
2024/01/24 07:52:00;;;;;;;24.27;3.42;;;;;;;5.62;52.28;100695.56;4938375;28;20123;-68
2024/01/24 07:54:25;;;;;;;26.40;2.80;;;;;;;5.82;52.05;100734.03;4927255;28;20054;-70
2024/01/24 07:56:53;;;;;;;16.73;4.30;;;;;;;5.52;52.06;100714.78;4946946;28;20035;-68
2024/01/24 07:59:18;;;;;;;17.75;3.83;;;;;;;5.24;52.60;100705.00;4954412;28;20086;-67
2024/01/24 08:01:48;;;;;;;33.22;4.38;;;;;;;5.32;52.64;100719.53;4936152;28;20526;-68
2024/01/24 08:04:14;;;;;;;19.00;3.63;;;;;;;5.77;51.36;100738.47;4922045;28;20051;-66
2024/01/24 08:06:41;;;;;;;30.45;4.90;;;;;;;5.73;51.48;100726.44;4946194;28;20034;-67
2024/01/24 08:09:07;;;;;;;30.13;4.45;;;;;;;5.24;52.28;100751.66;4922589;28;26623;-67
2024/01/24 08:11:38;;;;;;;25.55;3.85;;;;;;;5.54;51.91;100764.88;4947235;28;20538;-72
2024/01/24 08:14:03;;;;;;;32.75;5.72;;;;;;;5.73;51.55;100748.94;4936785;28;20039;-67
2024/01/24 08:16:29;;;;;;;22.65;4.22;;;;;;;5.01;52.70;100733.97;4966257;28;20069;-67
2024/01/24 08:18:58;;;;;;;25.77;3.05;;;;;;;5.67;51.25;100724.81;4940151;28;20163;-68
2024/01/24 08:21:24;;;;;;;34.13;3.78;;;;;;;5.64;51.19;100732.69;4937756;28;20029;-70
2024/01/24 08:23:51;;;;;;;32.90;4.07;;;;;;;5.91;50.71;100777.06;4933851;28;20125;-72
2024/01/24 08:26:24;;;;;;;20.98;4.68;;;;;;;5.46;51.70;100756.41;4956986;28;20038;-66
2024/01/24 08:28:49;;;;;;;23.55;3.75;;;;;;;5.29;52.05;100781.81;4943577;28;20027;-67
2024/01/24 08:31:14;;;;;;;33.80;4.65;;;;;;;5.98;50.47;100773.44;4933284;28;20264;-70
2024/01/24 08:33:40;;;;;;;12.73;3.72;;;;;;;5.43;51.51;100779.78;4937362;28;20042;-66
2024/01/24 08:36:06;;;;;;;20.15;2.95;;;;;;;5.49;51.38;100809.94;4935159;28;20038;-69
2024/01/24 08:38:33;;;;;;;26.90;3.72;;;;;;;5.72;51.40;100791.31;4937065;28;20128;-67
2024/01/24 08:40:59;;;;;;;29.42;3.50;;;;;;;5.71;51.07;100792.22;4968927;28;20094;-66
2024/01/24 08:43:29;;;;;;;27.98;2.90;;;;;;;5.48;51.49;100803.03;4940757;28;20035;-70
2024/01/24 08:45:55;;;;;;;18.88;3.25;;;;;;;5.73;51.30;100786.09;4925935;28;20644;-68
2024/01/24 08:48:24;;;;;;;21.52;2.95;;;;;;;5.75;51.07;100807.66;4903650;28;20066;-69
2024/01/24 08:50:50;;;;;;;22.48;4.53;;;;;;;6.09;50.22;100815.56;4901383;28;20450;-69
2024/01/24 08:53:19;;;;;;;32.35;3.45;;;;;;;5.99;50.42;100813.19;4911880;28;20150;-66
2024/01/24 08:55:44;;;;;;;29.83;3.17;;;;;;;6.19;50.07;100820.53;4898516;28;20292;-68
2024/01/24 08:58:10;;;;;;;25.02;3.97;;;;;;;5.32;51.73;100777.41;4906298;28;20078;-75
2024/01/24 09:00:35;;;;;;;27.40;3.92;;;;;;;5.58;51.22;100797.63;4966227;28;20325;-68
2024/01/24 09:03:08;;;;;;;17.58;3.58;;;;;;;6.03;50.52;100810.50;4939028;28;20035;-69
2024/01/24 09:05:43;;;;;;;26.58;3.28;;;;;;;5.69;51.14;100825.94;4871077;28;20090;-67
2024/01/24 09:08:08;;;;;;;29.92;3.33;;;;;;;6.18;49.90;100821.44;4876664;28;20115;-67
2024/01/24 09:10:35;;;;;;;28.00;4.20;;;;;;;6.27;49.64;100818.63;4928527;28;20625;-69
2024/01/24 09:13:03;;;;;;;18.80;3.42;;;;;;;5.91;50.67;100803.00;4900190;28;20311;-69
2024/01/24 09:15:29;;;;;;;32.00;2.70;;;;;;;5.78;50.83;100835.28;4884500;28;20175;-68
2024/01/24 09:17:58;;;;;;;17.80;3.45;;;;;;;6.28;50.08;100833.34;4972109;28;20039;-68
2024/01/24 09:20:24;;;;;;;34.88;4.80;;;;;;;6.42;49.55;100813.13;4932938;28;20062;-68
2024/01/24 09:22:49;;;;;;;39.40;4.28;;;;;;;5.95;50.46;100835.78;4943601;28;20510;-69
2024/01/24 09:25:15;;;;;;;22.30;3.35;;;;;;;5.84;50.65;100819.59;4959037;28;20047;-69
2024/01/24 09:27:40;;;;;;;18.73;3.03;;;;;;;6.11;49.92;100825.91;4874232;28;20050;-69
2024/01/24 09:30:07;;;;;;;25.20;3.88;;;;;;;5.93;50.31;100844.47;4853359;28;20047;-69
2024/01/24 09:32:32;;;;;;;33.08;3.22;;;;;;;6.11;49.79;100843.25;4850206;28;20421;-69
2024/01/24 09:34:58;;;;;;;18.45;3.05;;;;;;;6.23;49.56;100832.56;4890625;28;20161;-68
2024/01/24 09:37:24;;;;;;;17.17;2.58;;;;;;;6.03;50.15;100867.59;4864198;28;20189;-69
2024/01/24 09:39:50;;;;;;;23.67;3.55;;;;;;;6.55;48.95;100843.97;4856201;28;20155;-69
2024/01/24 09:42:21;;;;;;;19.48;3.22;;;;;;;5.77;50.03;100850.00;4944317;28;20114;-69
2024/01/24 09:44:48;;;;;;;16.10;3.10;;;;;;;6.00;50.05;100872.84;4937200;28;20117;-69
2024/01/24 09:47:16;;;;;;;15.13;3.20;;;;;;;6.27;49.98;100876.59;4952785;28;20609;-69
2024/01/24 09:49:43;;;;;;;23.52;3.83;;;;;;;6.31;49.27;100860.97;4969255;28;20192;-69
2024/01/24 09:52:12;;;;;;;30.10;3.03;;;;;;;6.61;48.78;100867.22;4939194;28;20587;-69
2024/01/24 09:54:42;;;;;;;15.38;2.42;;;;;;;6.22;49.39;100864.63;4930870;28;20122;-70
2024/01/24 09:57:12;;;;;;;20.63;2.95;;;;;;;6.53;48.69;100889.91;4933631;28;20058;-69
2024/01/24 09:59:38;;;;;;;17.98;3.05;;;;;;;5.80;50.38;100903.53;4949672;28;20140;-69
2024/01/24 10:02:06;;;;;;;19.15;3.63;;;;;;;5.79;50.63;100925.16;4942883;28;20483;-69
2024/01/24 10:04:37;;;;;;;17.92;2.92;;;;;;;5.48;50.36;100899.81;4925888;28;20049;-69
2024/01/24 10:07:12;;;;;;;23.35;3.40;;;;;;;5.80;50.22;100909.56;4956956;28;20076;-70
2024/01/24 10:09:38;;;;;;;13.15;1.77;;;;;;;6.11;49.91;100921.94;4930403;28;20047;-70
2024/01/24 10:12:04;;;;;;;23.85;1.95;;;;;;;6.06;49.49;100944.50;4937321;28;20030;-69
2024/01/24 10:14:30;;;;;;;13.82;1.90;;;;;;;6.06;49.52;100939.31;4936232;28;20038;-69
2024/01/24 10:16:58;;;;;;;18.73;2.47;;;;;;;6.21;49.48;100938.16;4973615;28;20501;-70
2024/01/24 10:19:25;;;;;;;21.45;2.85;;;;;;;6.06;49.57;100928.94;4965134;28;20038;-69
2024/01/24 10:21:53;;;;;;;23.60;3.25;;;;;;;6.27;49.26;100905.13;4936019;28;20023;-69
2024/01/24 10:24:21;;;;;;;24.05;2.65;;;;;;;6.22;49.08;100919.13;4934259;28;20506;-69
2024/01/24 10:26:46;;;;;;;11.00;2.83;;;;;;;5.62;50.22;100908.19;4936896;28;20641;-69
2024/01/24 10:29:14;;;;;;;20.83;2.70;;;;;;;6.27;49.44;100938.03;4929820;28;20043;-69
2024/01/24 10:31:41;;;;;;;20.00;3.80;;;;;;;5.71;50.44;100922.72;4964547;28;20778;-69
2024/01/24 10:34:06;;;;;;;34.55;3.28;;;;;;;6.12;49.74;100943.53;4962818;28;20046;-69
2024/01/24 10:36:33;;;;;;;18.27;2.67;;;;;;;5.63;50.30;100945.34;4929866;28;20502;-66
2024/01/24 10:39:02;;;;;;;24.48;3.45;;;;;;;5.70;50.14;100933.97;4935776;28;20085;-69
2024/01/24 10:41:32;;;;;;;27.30;3.45;;;;;;;5.55;50.56;100905.75;4955740;28;20031;-69
2024/01/24 10:44:05;;;;;;;14.45;2.42;;;;;;;6.01;49.46;100956.72;4905104;28;20102;-69
2024/01/24 10:46:33;;;;;;;23.85;3.03;;;;;;;5.75;50.40;100924.38;4931169;28;20038;-69
2024/01/24 10:49:02;;;;;;;25.10;3.20;;;;;;;5.49;50.99;100961.13;4925400;28;20038;-68
2024/01/24 10:51:27;;;;;;;27.92;3.45;;;;;;;6.00;49.94;100934.28;4930554;28;20038;-68
2024/01/24 10:53:59;;;;;;;36.55;3.83;;;;;;;5.37;50.46;100899.13;4938007;28;20035;-69
2024/01/24 10:56:27;;;;;;;23.50;3.63;;;;;;;5.62;50.52;100954.00;4961723;28;20042;-68
2024/01/24 10:58:55;;;;;;;15.00;3.00;;;;;;;5.46;50.54;100963.81;4932657;28;20035;-69
2024/01/24 11:01:20;;;;;;;23.83;3.33;;;;;;;5.77;50.46;100960.63;4936556;28;20034;-69
2024/01/24 11:03:48;;;;;;;24.85;3.38;;;;;;;6.07;49.68;100967.00;4965848;28;20573;-69
2024/01/24 11:06:17;;;;;;;16.48;4.05;;;;;;;6.05;49.90;100969.59;4932200;28;20059;-68
2024/01/24 11:09:20;;;;;;;20.33;3.20;;;;;;;6.04;49.71;100941.13;4931965;28;20054;-69
2024/01/24 11:11:47;;;;;;;26.98;3.33;;;;;;;5.61;50.79;100963.53;4936802;28;20043;-68
2024/01/24 11:14:12;;;;;;;39.85;5.75;;;;;;;5.67;50.45;100994.53;4925033;28;20546;-68
2024/01/24 11:16:39;;;;;;;26.52;4.00;;;;;;;5.34;51.46;100992.50;4959750;28;20031;-69
2024/01/24 11:19:27;;;;;;;24.45;3.80;;;;;;;5.53;51.00;101012.06;4934092;28;20069;-69
2024/01/24 11:21:54;;;;;;;24.70;3.67;;;;;;;5.72;50.61;101001.38;4963659;28;20034;-69
2024/01/24 11:24:44;;;;;;;22.13;3.30;;;;;;;5.82;50.54;100995.16;4958390;28;20421;-69
2024/01/24 11:27:33;;;;;;;17.20;2.40;;;;;;;5.28;51.39;100984.81;4962528;28;20139;-67